Time;durP1;ratioP1;P1;durP2;ratioP2;P2;SDS_P1;SDS_P2;PMS_P1;PMS_P2;Temp;Humidity;BMP_temperature;BMP_pressure;BME280_temperature;BME280_humidity;BME280_pressure;Samples;Min_cycle;Max_cycle;Signal;HPM_P1;HPM_P2
2023/10/06 00:01:42;;;;;;;11.82;5.05;;;;;;;9.77;91.15;98341.84;4822858;29;20059;-71
2023/10/06 00:04:07;;;;;;;7.70;5.18;;;;;;;9.67;92.17;98351.63;4824664;29;20045;-68
2023/10/06 00:06:42;;;;;;;9.80;4.82;;;;;;;9.69;92.66;98339.03;4824060;29;20421;-68
2023/10/06 00:09:25;;;;;;;10.85;5.30;;;;;;;9.69;92.49;98311.59;4838210;29;20552;-71
2023/10/06 00:11:51;;;;;;;15.77;5.43;;;;;;;9.64;93.63;98330.63;4838449;29;20061;-70
2023/10/06 00:14:23;;;;;;;16.45;5.55;;;;;;;9.75;92.46;98314.53;4825088;29;20813;-67
2023/10/06 00:16:57;;;;;;;8.95;4.80;;;;;;;9.72;92.50;98312.13;4824526;29;20049;-68
2023/10/06 00:19:26;;;;;;;10.57;5.10;;;;;;;9.85;91.53;98301.25;4832094;29;20522;-68
2023/10/06 00:22:37;;;;;;;9.40;5.28;;;;;;;9.86;91.38;98307.41;4824407;29;20057;-69
2023/10/06 00:24:43;;;;;;;10.32;4.78;;;;;;;9.81;91.50;98332.63;4826686;29;20072;-69
2023/10/06 00:27:13;;;;;;;10.35;5.68;;;;;;;9.78;91.30;98314.28;4824716;29;20882;-70
2023/10/06 00:29:39;;;;;;;11.38;4.95;;;;;;;9.82;91.96;98296.19;4824196;29;20389;-70
2023/10/06 00:32:25;;;;;;;12.18;5.25;;;;;;;9.84;91.79;98295.06;4806938;29;20060;-67
2023/10/06 00:34:54;;;;;;;11.80;5.90;;;;;;;9.84;91.52;98289.75;4827247;29;20064;-66
2023/10/06 00:37:24;;;;;;;9.57;4.82;;;;;;;9.86;91.14;98291.44;4827046;29;20413;-68
2023/10/06 00:39:50;;;;;;;13.85;5.13;;;;;;;9.98;90.21;98275.19;4853911;29;20044;-73
2023/10/06 00:42:17;;;;;;;6.43;3.10;;;;;;;10.14;89.50;98279.97;4838983;29;20075;-72
2023/10/06 00:44:45;;;;;;;9.90;5.00;;;;;;;9.92;89.82;98283.75;4824343;29;20050;-68
2023/10/06 00:47:13;;;;;;;9.95;4.97;;;;;;;9.86;90.65;98278.13;4823470;29;20049;-69
2023/10/06 00:49:40;;;;;;;10.48;4.95;;;;;;;9.86;90.97;98260.34;4823932;29;20037;-68
2023/10/06 00:52:07;;;;;;;11.57;5.40;;;;;;;9.75;92.13;98273.78;4823045;29;20056;-72
2023/10/06 00:54:34;;;;;;;11.70;5.57;;;;;;;9.65;94.16;98257.78;4824545;29;20416;-69
2023/10/06 00:57:08;;;;;;;12.27;5.63;;;;;;;9.61;94.95;98271.50;4837486;29;20056;-78
2023/10/06 00:59:37;;;;;;;10.90;5.18;;;;;;;9.96;93.20;98276.31;4864009;29;20048;-74
2023/10/06 01:02:08;;;;;;;9.55;5.13;;;;;;;9.84;92.98;98254.31;4860460;29;20048;-68
2023/10/06 01:04:45;;;;;;;10.35;5.03;;;;;;;10.03;91.79;98240.19;4847882;29;20056;-68
2023/10/06 01:07:16;;;;;;;9.57;5.03;;;;;;;9.80;91.62;98235.13;4860796;29;20057;-69
2023/10/06 01:10:06;;;;;;;14.75;5.25;;;;;;;9.94;92.11;98230.34;4858491;29;20048;-71
2023/10/06 01:12:32;;;;;;;7.25;4.43;;;;;;;9.83;92.01;98229.50;4847392;29;20044;-69
2023/10/06 01:15:16;;;;;;;14.15;6.68;;;;;;;9.74;92.38;98230.34;4858407;29;20500;-66
2023/10/06 01:17:42;;;;;;;7.93;4.53;;;;;;;9.69;93.34;98232.59;4841167;29;20045;-77
2023/10/06 01:20:10;;;;;;;13.30;6.45;;;;;;;9.78;93.01;98226.44;4843808;29;20056;-76
2023/10/06 01:22:41;;;;;;;12.63;5.95;;;;;;;9.78;93.23;98210.47;4860019;29;20036;-74
2023/10/06 01:25:21;;;;;;;9.25;5.70;;;;;;;9.74;94.01;98213.53;4844285;29;20057;-73
2023/10/06 01:27:50;;;;;;;14.48;6.05;;;;;;;9.69;94.00;98199.81;4861433;29;20059;-66
2023/10/06 01:32:43;;;;;;;13.57;6.68;;;;;;;9.77;93.08;98202.63;4862609;29;20051;-67
2023/10/06 01:35:13;;;;;;;19.50;6.70;;;;;;;9.68;93.61;98193.66;4862510;29;20052;-66
2023/10/06 01:37:43;;;;;;;14.65;5.88;;;;;;;9.58;95.24;98189.31;4840342;29;20072;-65
2023/10/06 01:40:35;;;;;;;15.90;7.43;;;;;;;9.54;95.69;98199.38;4862339;29;20048;-66
2023/10/06 01:43:09;;;;;;;12.38;6.38;;;;;;;9.50;95.67;98174.03;4862781;29;20424;-71
2023/10/06 01:45:36;;;;;;;12.95;5.88;;;;;;;9.50;97.05;98178.50;4847561;29;20091;-69
2023/10/06 01:50:42;;;;;;;14.00;6.15;;;;;;;9.41;99.41;98177.53;4847264;29;20060;-71
2023/10/06 01:53:18;;;;;;;12.13;5.95;;;;;;;9.45;99.91;98225.00;4864180;29;20051;-71
2023/10/06 01:55:43;;;;;;;10.85;6.22;;;;;;;9.48;99.46;98170.66;4863656;29;20055;-67
2023/10/06 01:58:11;;;;;;;14.13;6.50;;;;;;;9.54;99.26;98156.81;4846491;29;20044;-66
2023/10/06 02:00:37;;;;;;;14.75;6.70;;;;;;;9.63;97.44;98168.44;4843049;29;20057;-68
2023/10/06 02:03:08;;;;;;;12.25;5.95;;;;;;;9.41;98.06;98148.25;4847431;29;20048;-67
2023/10/06 02:05:38;;;;;;;16.88;6.93;;;;;;;9.35;98.88;98176.28;4864300;29;20056;-66
2023/10/06 02:08:04;;;;;;;13.07;6.43;;;;;;;9.28;100.00;98148.53;4847881;29;20044;-72
2023/10/06 02:10:32;;;;;;;14.43;6.25;;;;;;;9.34;100.00;98145.34;4862455;29;20447;-69
2023/10/06 02:12:58;;;;;;;12.23;7.20;;;;;;;9.14;100.00;98145.44;4865169;29;20044;-73
2023/10/06 02:15:28;;;;;;;13.07;6.78;;;;;;;9.10;100.00;98145.72;4850804;29;20055;-79
2023/10/06 02:17:54;;;;;;;10.38;5.55;;;;;;;9.12;100.00;98134.09;4859870;29;20060;-75
2023/10/06 02:20:41;;;;;;;12.05;6.43;;;;;;;9.10;100.00;98129.75;4867260;29;20055;-75
2023/10/06 02:23:05;;;;;;;10.20;5.82;;;;;;;9.06;100.00;98164.72;4834737;29;20053;-74
2023/10/06 02:25:31;;;;;;;13.00;5.88;;;;;;;9.05;100.00;98131.13;4867329;29;20045;-76
2023/10/06 02:27:59;;;;;;;11.02;6.57;;;;;;;9.05;100.00;98134.63;4870628;29;20053;-74
2023/10/06 02:30:33;;;;;;;16.30;6.32;;;;;;;9.05;100.00;98116.03;4853233;29;20420;-77
2023/10/06 02:33:01;;;;;;;10.02;6.32;;;;;;;9.13;100.00;98133.97;4890372;29;20052;-73
2023/10/06 02:35:26;;;;;;;12.18;5.75;;;;;;;9.25;100.00;98114.25;4866874;29;20653;-71
2023/10/06 02:37:51;;;;;;;12.25;5.10;;;;;;;9.19;100.00;98101.50;4866769;29;20516;-72
2023/10/06 02:40:17;;;;;;;14.55;7.28;;;;;;;9.12;100.00;98116.34;4861390;29;20063;-70
2023/10/06 02:42:46;;;;;;;11.93;6.72;;;;;;;9.18;100.00;98113.09;4868208;29;20048;-69
2023/10/06 02:45:16;;;;;;;13.48;7.70;;;;;;;9.12;100.00;98111.00;4882470;29;20060;-69
2023/10/06 02:47:42;;;;;;;13.27;7.40;;;;;;;9.10;100.00;98105.84;4866694;29;20053;-70
2023/10/06 02:50:12;;;;;;;12.68;6.20;;;;;;;9.07;100.00;98098.13;4876392;29;20056;-73
2023/10/06 02:52:37;;;;;;;14.98;6.85;;;;;;;9.22;100.00;98103.88;4848720;29;20036;-70
2023/10/06 02:57:35;;;;;;;13.85;6.43;;;;;;;9.11;100.00;98114.66;4846647;29;20072;-75
2023/10/06 03:02:55;;;;;;;12.10;6.47;;;;;;;9.14;100.00;98092.28;4861831;29;20051;-72
2023/10/06 03:05:25;;;;;;;16.25;7.82;;;;;;;9.15;100.00;98089.44;4846136;29;20044;-67
2023/10/06 03:07:51;;;;;;;11.75;6.45;;;;;;;9.21;100.00;98082.75;4846011;29;20059;-67
2023/10/06 03:10:18;;;;;;;11.43;5.68;;;;;;;9.25;100.00;98089.47;4846016;29;20056;-67
2023/10/06 03:12:45;;;;;;;11.70;6.55;;;;;;;9.21;100.00;98083.59;4861393;29;20047;-68
2023/10/06 03:15:33;;;;;;;12.55;6.40;;;;;;;9.21;100.00;98077.44;4830937;29;20068;-67
2023/10/06 03:17:59;;;;;;;13.23;6.45;;;;;;;9.23;100.00;98070.16;4846367;29;20053;-67
2023/10/06 03:20:46;;;;;;;12.98;6.90;;;;;;;9.25;100.00;98089.47;4830454;29;20072;-69
2023/10/06 03:23:26;;;;;;;12.70;6.32;;;;;;;9.20;100.00;98071.28;4861704;29;20044;-68
2023/10/06 03:25:56;;;;;;;12.88;6.45;;;;;;;9.30;100.00;98072.13;4846619;29;20056;-69
2023/10/06 03:28:31;;;;;;;11.82;5.93;;;;;;;9.38;100.00;98064.25;4866757;29;20044;-68
2023/10/06 03:31:05;;;;;;;15.25;6.25;;;;;;;9.46;100.00;98071.56;4874459;29;20052;-68
2023/10/06 03:33:31;;;;;;;16.00;6.88;;;;;;;9.43;100.00;98047.91;4871797;29;20040;-69
2023/10/06 03:35:58;;;;;;;13.38;7.07;;;;;;;9.48;100.00;98050.94;4886835;29;20029;-75
2023/10/06 03:46:02;;;;;;;13.20;7.07;;;;;;;9.60;100.00;98041.84;4861748;29;20428;-73
2023/10/06 03:48:31;;;;;;;11.55;6.45;;;;;;;9.61;100.00;98027.56;4861195;29;20305;-71
2023/10/06 03:50:57;;;;;;;10.55;7.07;;;;;;;9.62;100.00;98023.91;4860897;29;20056;-73
2023/10/06 03:53:24;;;;;;;10.35;5.82;;;;;;;9.59;100.00;98034.03;4862359;29;20444;-71
2023/10/06 03:55:50;;;;;;;8.32;5.78;;;;;;;9.66;100.00;98025.31;4861021;29;20048;-72
2023/10/06 03:58:17;;;;;;;12.95;7.03;;;;;;;9.72;100.00;98013.25;4861926;29;20064;-76
2023/10/06 04:00:49;;;;;;;9.63;6.20;;;;;;;9.80;100.00;98027.53;4862676;29;20053;-78
2023/10/06 04:03:17;;;;;;;13.15;8.18;;;;;;;9.77;100.00;98022.50;4861748;29;20059;-75
2023/10/06 04:05:44;;;;;;;13.65;6.93;;;;;;;9.76;100.00;98015.50;4846546;29;20063;-75
2023/10/06 04:08:16;;;;;;;9.05;5.43;;;;;;;9.85;100.00;98019.09;4861607;29;20052;-77
2023/10/06 04:10:45;;;;;;;12.95;6.53;;;;;;;9.83;100.00;98026.38;4861463;29;20063;-78
2023/10/06 04:13:10;;;;;;;14.20;6.25;;;;;;;9.84;100.00;98012.94;4861992;29;20051;-74
2023/10/06 04:15:43;;;;;;;10.18;6.50;;;;;;;9.89;100.00;98014.34;4860605;29;20049;-75
2023/10/06 04:18:14;;;;;;;13.27;6.50;;;;;;;9.81;100.00;98012.41;4862898;29;20040;-73
2023/10/06 04:20:41;;;;;;;9.15;5.57;;;;;;;9.80;100.00;97969.00;4861583;29;20053;-74
2023/10/06 04:23:07;;;;;;;11.07;6.18;;;;;;;9.87;100.00;98006.50;4845501;29;20782;-71
2023/10/06 04:25:37;;;;;;;13.25;6.82;;;;;;;9.81;100.00;98007.09;4861171;29;20052;-73
2023/10/06 04:28:11;;;;;;;13.68;7.75;;;;;;;9.87;100.00;97995.84;4860594;29;20064;-72
2023/10/06 04:30:38;;;;;;;14.10;5.63;;;;;;;9.94;100.00;98001.41;4861914;29;20538;-75
2023/10/06 04:33:04;;;;;;;8.57;5.45;;;;;;;10.04;100.00;97997.75;4862851;29;20059;-80
2023/10/06 04:35:32;;;;;;;12.00;5.93;;;;;;;10.04;100.00;97991.59;4863167;29;20536;-80
2023/10/06 04:38:01;;;;;;;12.95;5.40;;;;;;;10.06;100.00;98000.25;4862019;29;20048;-76
2023/10/06 04:40:29;;;;;;;14.02;6.53;;;;;;;10.08;100.00;97987.63;4862762;29;20052;-81
2023/10/06 04:42:56;;;;;;;10.63;6.50;;;;;;;10.05;100.00;97979.94;4861585;29;20060;-80
2023/10/06 04:45:23;;;;;;;12.90;6.95;;;;;;;10.05;100.00;97987.91;4862615;29;20044;-78
2023/10/06 04:47:48;;;;;;;13.25;6.43;;;;;;;10.06;100.00;97984.28;4829768;29;20056;-80
2023/10/06 04:50:15;;;;;;;11.40;6.05;;;;;;;10.04;100.00;97991.59;4844972;29;20063;-75
2023/10/06 04:52:44;;;;;;;10.52;6.07;;;;;;;10.07;100.00;97972.66;4860307;29;20052;-73
2023/10/06 04:55:11;;;;;;;12.82;5.85;;;;;;;10.17;100.00;97982.25;4860424;29;20107;-78
2023/10/06 04:57:37;;;;;;;17.60;7.07;;;;;;;10.14;100.00;98008.38;4844893;29;20063;-77
2023/10/06 05:00:13;;;;;;;12.23;6.35;;;;;;;10.14;100.00;97976.41;4861847;29;20444;-79
2023/10/06 05:02:38;;;;;;;10.65;6.18;;;;;;;10.17;100.00;97976.94;4828267;29;20056;-75
2023/10/06 05:05:05;;;;;;;16.15;6.53;;;;;;;10.22;100.00;98021.81;4844974;29;20064;-78
2023/10/06 05:07:31;;;;;;;7.95;5.10;;;;;;;10.31;100.00;97950.81;4862528;29;20059;-74
2023/10/06 05:09:56;;;;;;;11.32;5.97;;;;;;;10.41;100.00;97979.09;4863093;29;20048;-77
2023/10/06 05:12:24;;;;;;;8.02;5.15;;;;;;;10.51;99.91;97953.22;4846120;29;20048;-76
2023/10/06 05:14:49;;;;;;;14.55;6.35;;;;;;;10.76;99.25;97951.66;4863290;29;20049;-76
2023/10/06 05:17:16;;;;;;;9.30;5.45;;;;;;;11.09;98.17;97946.59;4863193;29;20075;-75
2023/10/06 05:19:42;;;;;;;10.23;6.28;;;;;;;11.60;96.62;97956.50;4845250;29;20051;-76
2023/10/06 05:22:07;;;;;;;11.38;5.93;;;;;;;12.05;92.47;97955.44;4860930;29;20079;-76
2023/10/06 05:24:32;;;;;;;9.95;5.78;;;;;;;12.55;87.53;97942.91;4848320;29;20432;-77
2023/10/06 05:26:58;;;;;;;9.82;5.30;;;;;;;12.89;84.46;97936.63;4862940;29;20047;-76
2023/10/06 05:29:25;;;;;;;10.75;5.32;;;;;;;13.22;80.12;97941.00;4845980;29;20740;-78
2023/10/06 05:31:50;;;;;;;10.80;5.20;;;;;;;13.75;78.33;97932.44;4863529;29;20045;-76
2023/10/06 05:34:17;;;;;;;13.68;6.53;;;;;;;14.42;77.93;97930.19;4860890;29;20048;-77
2023/10/06 05:36:42;;;;;;;9.50;5.15;;;;;;;14.83;73.75;97933.44;4845329;29;20063;-79
2023/10/06 05:39:11;;;;;;;13.50;5.68;;;;;;;14.66;71.86;97929.22;4860701;29;20488;-72
2023/10/06 05:41:37;;;;;;;9.15;5.43;;;;;;;14.36;71.32;97909.41;4845554;29;20427;-74
2023/10/06 05:44:02;;;;;;;7.57;5.13;;;;;;;14.06;71.72;97913.72;4844501;29;20052;-72
2023/10/06 05:46:27;;;;;;;10.75;5.63;;;;;;;13.96;71.90;97921.16;4859719;29;20052;-76
2023/10/06 05:48:53;;;;;;;12.32;6.38;;;;;;;13.74;71.96;97925.41;4844082;29;20059;-73
2023/10/06 05:51:21;;;;;;;8.88;5.18;;;;;;;13.59;72.78;97915.53;4859966;29;20728;-76
2023/10/06 05:53:48;;;;;;;14.80;4.50;;;;;;;13.82;74.21;97921.84;4859877;29;20504;-74
2023/10/06 05:56:15;;;;;;;9.63;4.90;;;;;;;14.06;73.89;97913.72;4859635;29;20060;-75
2023/10/06 05:58:43;;;;;;;11.32;6.30;;;;;;;14.26;72.41;97902.59;4859725;29;20048;-76
2023/10/06 06:01:18;;;;;;;9.25;4.93;;;;;;;14.45;70.31;97935.19;4859966;29;20059;-73
2023/10/06 06:03:45;;;;;;;10.30;5.18;;;;;;;14.53;70.17;97905.66;4843850;29;20074;-75
2023/10/06 06:06:12;;;;;;;9.52;5.22;;;;;;;14.26;70.16;97924.03;4844733;29;20074;-74
2023/10/06 06:08:40;;;;;;;10.32;5.57;;;;;;;13.87;70.74;97913.31;4844028;29;20048;-75
2023/10/06 06:11:06;;;;;;;12.57;6.57;;;;;;;13.45;71.68;97927.78;4859813;29;20065;-78
2023/10/06 06:13:33;;;;;;;10.65;5.72;;;;;;;13.13;72.96;97903.69;4860192;29;20048;-76
2023/10/06 06:15:59;;;;;;;10.85;6.63;;;;;;;12.98;74.70;97884.81;4863415;29;20052;-77
2023/10/06 06:18:27;;;;;;;14.43;6.00;;;;;;;12.79;75.46;97895.84;4863346;29;20052;-75
2023/10/06 06:20:52;;;;;;;9.45;5.55;;;;;;;12.48;76.46;97867.06;4863594;29;20048;-75
2023/10/06 06:23:20;;;;;;;11.93;6.00;;;;;;;12.27;76.96;97898.75;4864464;29;20551;-73
2023/10/06 06:25:45;;;;;;;8.95;5.30;;;;;;;12.22;77.62;97898.41;4863473;29;20064;-74
2023/10/06 06:28:12;;;;;;;10.48;5.53;;;;;;;12.14;78.12;97891.19;4863222;29;20531;-75
2023/10/06 06:30:39;;;;;;;16.15;6.47;;;;;;;11.97;79.13;97878.78;4863197;29;20052;-73
2023/10/06 06:33:08;;;;;;;13.52;6.13;;;;;;;11.97;80.05;97889.47;4846820;29;20079;-73
2023/10/06 06:35:35;;;;;;;14.50;6.18;;;;;;;11.98;80.23;97889.28;4846574;29;20111;-74
2023/10/06 06:38:04;;;;;;;11.15;5.72;;;;;;;11.85;80.61;97875.56;4864011;29;20087;-76
2023/10/06 06:40:31;;;;;;;8.70;5.55;;;;;;;11.85;80.77;97912.13;4863750;29;20052;-78
2023/10/06 06:43:00;;;;;;;9.48;6.32;;;;;;;11.94;80.19;97871.94;4848325;29;20052;-76
2023/10/06 06:45:26;;;;;;;10.15;5.43;;;;;;;11.80;80.38;97877.06;4863683;29;20060;-79
2023/10/06 06:47:52;;;;;;;10.68;6.07;;;;;;;11.77;81.07;97862.19;4865047;29;20059;-78
2023/10/06 06:50:17;;;;;;;11.35;5.75;;;;;;;11.86;81.32;97874.56;4865488;29;20496;-77
2023/10/06 06:52:48;;;;;;;11.23;4.78;;;;;;;12.03;80.75;97858.59;4865702;29;20055;-79
2023/10/06 06:55:14;;;;;;;11.85;5.68;;;;;;;11.93;81.20;97872.94;4865407;29;20055;-79
2023/10/06 06:57:43;;;;;;;11.07;6.28;;;;;;;11.99;81.51;97858.94;4848995;29;20145;-80
2023/10/06 07:00:16;;;;;;;12.57;5.40;;;;;;;12.07;81.04;97862.63;4865138;29;20048;-74
2023/10/06 07:02:46;;;;;;;9.65;5.35;;;;;;;12.15;81.31;97860.81;4863395;29;20048;-75
2023/10/06 07:05:15;;;;;;;11.48;5.75;;;;;;;12.28;80.43;97860.34;4846608;29;20064;-73
2023/10/06 07:07:45;;;;;;;8.20;5.32;;;;;;;12.30;78.93;97864.50;4863309;29;20048;-77
2023/10/06 07:10:15;;;;;;;15.02;5.40;;;;;;;12.35;79.23;97839.97;4863928;29;20520;-74
2023/10/06 07:12:44;;;;;;;8.70;5.35;;;;;;;12.45;79.45;97840.66;4863462;29;20045;-75
2023/10/06 07:15:16;;;;;;;17.33;6.90;;;;;;;12.38;78.61;97839.66;4862243;29;20052;-76
2023/10/06 07:17:56;;;;;;;12.88;5.68;;;;;;;12.33;78.28;97864.19;4862414;29;20057;-72
2023/10/06 07:20:27;;;;;;;11.25;4.65;;;;;;;12.42;78.93;97840.16;4861937;29;20055;-78
2023/10/06 07:23:00;;;;;;;11.43;4.95;;;;;;;12.33;78.75;97825.94;4862778;29;20056;-73
2023/10/06 07:25:27;;;;;;;10.88;5.47;;;;;;;12.30;77.83;97826.31;4862385;29;20516;-73
2023/10/06 07:27:57;;;;;;;9.88;5.82;;;;;;;11.91;78.68;97832.19;4845937;29;20372;-75
2023/10/06 07:30:25;;;;;;;8.02;3.85;;;;;;;11.96;80.09;97840.53;4845218;29;20056;-73
2023/10/06 07:32:52;;;;;;;9.35;5.07;;;;;;;11.92;80.24;97819.69;4862488;29;20048;-73
2023/10/06 07:35:19;;;;;;;10.40;5.20;;;;;;;11.86;80.49;97825.66;4862612;29;20040;-75
2023/10/06 07:37:47;;;;;;;11.48;5.95;;;;;;;11.77;80.44;97830.16;4845440;29;20531;-73
2023/10/06 07:40:15;;;;;;;8.35;4.30;;;;;;;11.80;80.54;97845.00;4861183;29;20416;-73
2023/10/06 07:42:42;;;;;;;14.15;5.65;;;;;;;11.54;82.91;97818.34;4862394;29;20145;-71
2023/10/06 07:45:09;;;;;;;9.15;4.88;;;;;;;11.82;82.89;97835.84;4862332;29;20044;-76
2023/10/06 07:47:36;;;;;;;5.68;4.07;;;;;;;11.76;82.91;97833.81;4861320;29;20492;-77
2023/10/06 07:50:02;;;;;;;7.90;3.92;;;;;;;11.62;84.79;97821.06;4861718;29;20055;-77
2023/10/06 07:52:28;;;;;;;10.10;4.97;;;;;;;11.50;84.85;97825.00;4862715;29;20063;-74
2023/10/06 07:54:54;;;;;;;11.18;5.80;;;;;;;11.52;84.28;97879.88;4845735;29;20057;-73
2023/10/06 07:57:19;;;;;;;13.05;5.40;;;;;;;11.34;85.90;97839.09;4860963;29;20401;-75
2023/10/06 07:59:44;;;;;;;10.65;6.25;;;;;;;11.33;86.35;97810.75;4860976;29;20037;-74
2023/10/06 08:02:10;;;;;;;17.42;5.85;;;;;;;11.43;85.97;97815.94;4863033;29;20416;-75
2023/10/06 08:04:35;;;;;;;9.20;5.28;;;;;;;11.43;86.33;97814.13;4862331;29;20059;-78
2023/10/06 08:07:00;;;;;;;10.25;5.75;;;;;;;11.31;86.73;97806.56;4847146;29;20059;-77
2023/10/06 08:09:26;;;;;;;9.65;5.15;;;;;;;11.38;87.25;97829.78;4847531;29;20501;-79
2023/10/06 08:11:54;;;;;;;10.40;5.85;;;;;;;11.43;87.48;97811.44;4862851;29;20048;-79
2023/10/06 08:14:20;;;;;;;10.05;5.75;;;;;;;11.50;87.22;97798.31;4847131;29;20056;-78
2023/10/06 08:16:45;;;;;;;9.30;5.43;;;;;;;11.56;87.72;97784.31;4864445;29;20052;-80
2023/10/06 08:19:11;;;;;;;11.60;6.07;;;;;;;11.67;87.63;97786.69;4847595;29;20432;-77
2023/10/06 08:21:37;;;;;;;11.80;6.05;;;;;;;11.77;87.67;97797.28;4863054;29;20057;-78
2023/10/06 08:24:03;;;;;;;12.13;6.28;;;;;;;11.83;87.55;97780.63;4862598;29;20048;-75
2023/10/06 08:26:28;;;;;;;11.30;5.15;;;;;;;11.89;88.06;97785.28;4846489;29;20060;-79
2023/10/06 08:28:54;;;;;;;10.23;5.47;;;;;;;11.95;88.16;97780.16;4844646;29;20416;-77
2023/10/06 08:31:19;;;;;;;10.02;6.00;;;;;;;12.19;87.87;97779.34;4862404;29;20044;-76
2023/10/06 08:33:45;;;;;;;9.40;4.60;;;;;;;12.23;87.02;97766.50;4869995;29;20053;-76
2023/10/06 08:36:11;;;;;;;13.52;5.50;;;;;;;12.45;86.01;97787.22;4863764;29;20056;-76
2023/10/06 08:38:37;;;;;;;9.13;5.47;;;;;;;12.46;84.89;97774.69;4861735;29;20778;-75
2023/10/06 08:41:03;;;;;;;13.20;5.15;;;;;;;12.68;85.34;97761.47;4880490;29;20048;-76
2023/10/06 08:43:29;;;;;;;12.82;4.88;;;;;;;13.07;84.07;97772.28;4870929;29;20393;-76
2023/10/06 08:45:57;;;;;;;14.13;5.85;;;;;;;13.29;81.95;97754.69;4862008;29;20047;-76
2023/10/06 08:48:26;;;;;;;11.05;5.28;;;;;;;13.57;80.18;97762.25;4846191;29;20055;-77
2023/10/06 08:50:55;;;;;;;7.85;5.32;;;;;;;13.64;78.24;97765.94;4861932;29;20052;-77
2023/10/06 08:53:23;;;;;;;7.18;4.95;;;;;;;13.59;77.94;97739.66;4847393;29;20060;-80
2023/10/06 08:55:49;;;;;;;9.02;5.07;;;;;;;13.55;78.13;97757.09;4845279;29;20057;-77
2023/10/06 08:58:14;;;;;;;6.40;4.00;;;;;;;13.40;77.88;97757.00;4862052;29;20424;-76
2023/10/06 09:00:43;;;;;;;7.22;4.20;;;;;;;13.09;78.18;97769.44;4861238;29;20515;-78
2023/10/06 09:03:11;;;;;;;6.20;3.90;;;;;;;12.67;78.80;97758.97;4862786;29;20432;-78
2023/10/06 09:05:44;;;;;;;6.57;3.72;;;;;;;12.60;79.85;97752.63;4863449;29;20049;-82
2023/10/06 09:08:17;;;;;;;5.32;4.07;;;;;;;12.24;81.45;97757.47;4846141;29;20057;-79
2023/10/06 09:10:51;;;;;;;6.60;4.37;;;;;;;12.00;83.41;97761.78;4845939;29;20061;-77
2023/10/06 09:13:21;;;;;;;5.73;4.20;;;;;;;12.11;83.65;97752.63;4862708;29;20531;-81
2023/10/06 09:16:02;;;;;;;5.43;3.67;;;;;;;11.99;84.56;97749.44;4864415;29;20060;-83
2023/10/06 09:18:28;;;;;;;7.85;4.10;;;;;;;11.74;84.92;97750.34;4864348;29;20063;-77
2023/10/06 09:20:54;;;;;;;6.13;3.58;;;;;;;11.94;84.07;97757.13;4850276;29;20052;-78
2023/10/06 09:23:34;;;;;;;5.43;3.35;;;;;;;11.84;84.20;97755.59;4887123;29;20024;-78
2023/10/06 09:26:01;;;;;;;7.00;3.92;;;;;;;11.73;83.75;97748.69;4872464;29;20036;-79
2023/10/06 09:28:27;;;;;;;8.68;3.45;;;;;;;11.43;85.47;97763.41;4887810;29;20124;-78
2023/10/06 09:31:00;;;;;;;6.13;3.83;;;;;;;11.84;88.60;97739.56;4879023;29;20043;-78
2023/10/06 09:33:41;;;;;;;7.80;4.28;;;;;;;12.31;87.26;97699.69;4875995;29;20060;-79
2023/10/06 09:36:09;;;;;;;8.35;3.60;;;;;;;12.56;84.71;97746.78;4857896;29;20057;-78
2023/10/06 09:38:39;;;;;;;10.35;3.80;;;;;;;12.99;83.98;97748.22;4862421;29;20052;-75
2023/10/06 09:41:07;;;;;;;4.53;3.03;;;;;;;13.57;83.22;97746.19;4861968;29;20040;-73
2023/10/06 09:43:41;;;;;;;4.30;2.90;;;;;;;14.12;79.94;97736.16;4861243;29;20048;-74
2023/10/06 09:46:11;;;;;;;4.47;3.13;;;;;;;14.19;76.37;97696.09;4861176;29;20056;-75
2023/10/06 09:48:38;;;;;;;5.97;2.97;;;;;;;14.28;75.13;97731.72;4861801;29;20400;-73
2023/10/06 09:51:08;;;;;;;6.53;2.85;;;;;;;14.51;74.98;97735.22;4864458;29;20052;-74
2023/10/06 09:53:38;;;;;;;3.78;2.78;;;;;;;14.58;73.72;97725.44;4847827;29;20136;-74
2023/10/06 09:56:11;;;;;;;4.80;2.97;;;;;;;14.53;72.51;97739.41;4864923;29;20059;-76
2023/10/06 09:58:38;;;;;;;4.10;3.00;;;;;;;14.57;72.52;97730.97;4864146;29;20851;-75
2023/10/06 10:01:04;;;;;;;6.15;3.75;;;;;;;15.78;73.39;97734.19;4863190;29;20056;-72
2023/10/06 10:03:33;;;;;;;6.07;3.10;;;;;;;17.70;68.24;97721.28;4863772;29;20055;-75
2023/10/06 10:06:04;;;;;;;5.15;2.85;;;;;;;19.45;59.47;97716.38;4843844;29;20055;-75
2023/10/06 10:08:33;;;;;;;7.03;2.95;;;;;;;20.02;55.14;97733.66;4848320;29;20036;-74
2023/10/06 10:11:05;;;;;;;4.18;2.72;;;;;;;19.48;54.15;97700.59;4865326;29;20048;-74
2023/10/06 10:13:45;;;;;;;5.22;2.80;;;;;;;18.81;56.40;97736.03;4862507;29;20070;-75
2023/10/06 10:16:38;;;;;;;4.80;2.22;;;;;;;17.97;58.26;97716.78;4864250;29;20049;-75
2023/10/06 10:19:10;;;;;;;3.00;2.40;;;;;;;16.41;58.77;97719.13;4857450;29;20520;-72
2023/10/06 10:21:36;;;;;;;3.08;2.25;;;;;;;15.90;61.52;97738.06;4848341;29;20064;-73
2023/10/06 10:24:05;;;;;;;2.65;2.22;;;;;;;15.33;62.27;97724.50;4859357;29;20060;-77
2023/10/06 10:26:34;;;;;;;2.97;2.25;;;;;;;14.99;63.73;97728.56;4865443;29;20516;-77
2023/10/06 10:29:17;;;;;;;5.50;3.50;;;;;;;14.83;65.26;97718.84;4865023;29;20040;-77
2023/10/06 10:31:51;;;;;;;5.60;3.17;;;;;;;14.45;66.02;97730.56;4850139;29;20056;-76
2023/10/06 10:34:21;;;;;;;1.90;1.75;;;;;;;14.18;66.91;97723.91;4858573;29;20523;-75
2023/10/06 10:37:12;;;;;;;3.72;2.22;;;;;;;14.08;67.29;97720.63;4862830;29;20052;-75
2023/10/06 10:39:50;;;;;;;4.03;2.83;;;;;;;14.03;67.60;97726.53;4827681;29;20059;-76
2023/10/06 10:42:22;;;;;;;2.72;2.10;;;;;;;13.82;67.99;97734.34;4846420;29;20048;-77
2023/10/06 10:45:26;;;;;;;6.50;3.50;;;;;;;13.85;68.91;97728.66;4846806;29;20056;-76
2023/10/06 10:47:52;;;;;;;4.07;2.35;;;;;;;13.59;69.89;97718.25;4863330;29;20051;-76
2023/10/06 10:50:17;;;;;;;4.45;3.05;;;;;;;13.45;70.89;97725.19;4863599;29;20052;-75
2023/10/06 10:52:43;;;;;;;3.15;2.40;;;;;;;13.31;71.47;97725.09;4863941;29;20041;-77
2023/10/06 10:55:12;;;;;;;4.03;2.38;;;;;;;13.07;72.26;97723.31;4846166;29;20056;-76
2023/10/06 10:57:44;;;;;;;6.30;3.38;;;;;;;12.94;74.13;97731.03;4861996;29;20064;-77
2023/10/06 11:02:44;;;;;;;3.83;2.65;;;;;;;12.87;78.07;97730.84;4847656;29;20052;-77
2023/10/06 11:05:10;;;;;;;5.38;2.72;;;;;;;12.77;78.53;97738.22;4848727;29;20064;-80
2023/10/06 11:07:35;;;;;;;7.50;3.50;;;;;;;12.68;79.87;97745.44;4847003;29;20052;-72
2023/10/06 11:10:04;;;;;;;10.02;3.92;;;;;;;12.54;81.04;97737.25;4862192;29;20052;-73
2023/10/06 11:12:34;;;;;;;7.68;3.90;;;;;;;12.43;82.58;97754.47;4847421;29;20751;-73
2023/10/06 11:15:05;;;;;;;6.30;3.83;;;;;;;12.29;83.77;97765.84;4846772;29;20059;-75
2023/10/06 11:17:32;;;;;;;8.82;4.03;;;;;;;12.16;85.55;97761.00;4863248;29;20052;-74
2023/10/06 11:20:15;;;;;;;8.20;3.85;;;;;;;12.13;87.64;97773.81;4846708;29;20052;-73
2023/10/06 11:23:01;;;;;;;9.15;4.82;;;;;;;11.97;88.46;97769.28;4861163;29;20048;-74
2023/10/06 11:25:28;;;;;;;8.15;4.90;;;;;;;11.77;89.81;97784.75;4862697;29;20530;-81
2023/10/06 11:28:08;;;;;;;7.72;3.95;;;;;;;11.72;90.54;97786.22;4846220;29;20064;-77
2023/10/06 11:30:44;;;;;;;7.53;2.85;;;;;;;11.56;91.88;97784.31;4847251;29;20441;-78
2023/10/06 11:33:11;;;;;;;5.40;2.55;;;;;;;11.38;91.85;97779.09;4867171;29;20059;-77
2023/10/06 11:35:38;;;;;;;18.25;11.00;;;;;;;11.27;92.64;97784.72;4866876;29;20052;-77
2023/10/06 11:38:06;;;;;;;15.45;8.45;;;;;;;11.21;93.42;97772.84;4863902;29;20048;-72
2023/10/06 11:40:35;;;;;;;5.65;3.15;;;;;;;11.18;94.52;97781.13;4846069;29;20040;-74
2023/10/06 11:43:20;;;;;;;3.65;2.38;;;;;;;11.24;95.65;97785.03;4845400;29;20134;-67
2023/10/06 11:45:46;;;;;;;3.03;2.22;;;;;;;11.10;96.11;97794.44;4826798;29;20057;-66
2023/10/06 11:48:34;;;;;;;8.70;3.58;;;;;;;11.14;96.31;97806.47;4858991;29;20048;-67
2023/10/06 11:51:00;;;;;;;7.07;2.75;;;;;;;11.02;96.43;97799.72;4861897;29;20047;-66
2023/10/06 11:53:26;;;;;;;5.07;2.78;;;;;;;10.98;97.24;97803.69;4861804;29;20060;-67
2023/10/06 11:55:53;;;;;;;6.85;2.50;;;;;;;10.90;97.78;97824.97;4860721;29;20052;-65
2023/10/06 11:58:42;;;;;;;4.32;2.20;;;;;;;10.94;97.66;97836.19;4861701;29;20061;-66
2023/10/06 12:01:33;;;;;;;3.88;1.90;;;;;;;10.89;98.67;97817.97;4861668;29;20040;-66